Time;durP1;ratioP1;P1;durP2;ratioP2;P2;SDS_P1;SDS_P2;PMS_P1;PMS_P2;Temp;Humidity;BMP_temperature;BMP_pressure;BME280_temperature;BME280_humidity;BME280_pressure;Samples;Min_cycle;Max_cycle;Signal;HPM_P1;HPM_P2
2022/01/12 00:01:06;;;;;;;;;;;1.00;55.00;;;;;;5093974;28;20287;-62
2022/01/12 00:03:34;;;;;;;;;;;1.00;55.10;;;;;;5094285;28;19912;-64
2022/01/12 00:06:01;;;;;;;;;;;1.00;55.20;;;;;;5076038;28;19912;-63
2022/01/12 00:08:27;;;;;;;;;;;1.00;55.10;;;;;;5093934;28;19934;-62
2022/01/12 00:10:52;;;;;;;;;;;1.00;55.20;;;;;;5094000;28;19908;-63
2022/01/12 00:13:18;;;;;;;;;;;0.90;55.20;;;;;;5075849;28;20322;-64
2022/01/12 00:15:44;;;;;;;;;;;0.90;55.20;;;;;;5093846;28;19908;-63
2022/01/12 00:18:09;;;;;;;;;;;0.90;55.30;;;;;;5075242;28;20010;-64
2022/01/12 00:20:35;;;;;;;;;;;0.90;55.40;;;;;;5093682;28;20363;-63
2022/01/12 00:23:03;;;;;;;;;;;0.90;55.40;;;;;;5075582;28;19915;-64
2022/01/12 00:25:33;;;;;;;;;;;0.90;55.50;;;;;;5093586;28;20322;-64
2022/01/12 00:33:27;;;;;;;;;;;0.90;55.90;;;;;;5073312;28;19969;-63
2022/01/12 00:35:54;;;;;;;;;;;0.90;55.90;;;;;;5078550;28;19912;-62
2022/01/12 00:38:21;;;;;;;;;;;0.80;56.00;;;;;;5074385;28;19922;-64
2022/01/12 00:40:48;;;;;;;;;;;0.80;56.00;;;;;;5075359;28;19989;-64
2022/01/12 00:43:14;;;;;;;;;;;0.90;56.10;;;;;;5093142;28;19919;-63
2022/01/12 00:45:45;;;;;;;;;;;0.90;56.00;;;;;;5093427;28;19916;-63
2022/01/12 00:48:14;;;;;;;;;;;0.90;56.00;;;;;;5093613;28;19908;-63
2022/01/12 00:50:40;;;;;;;;;;;0.90;56.00;;;;;;5093532;28;19915;-63
2022/01/12 00:53:09;;;;;;;;;;;0.90;56.10;;;;;;5093558;28;20344;-64
2022/01/12 00:55:35;;;;;;;;;;;0.90;56.60;;;;;;5088998;28;20263;-62
2022/01/12 00:58:00;;;;;;;;;;;0.90;56.00;;;;;;5092952;28;19908;-64
2022/01/12 01:00:27;;;;;;;;;;;0.80;55.90;;;;;;5074703;28;19912;-62
2022/01/12 01:02:53;;;;;;;;;;;0.80;55.80;;;;;;5093218;28;19908;-64
2022/01/12 01:05:21;;;;;;;;;;;0.80;55.80;;;;;;5093610;28;19951;-64
2022/01/12 01:07:47;;;;;;;;;;;0.80;56.00;;;;;;5109618;28;19912;-63
2022/01/12 01:10:22;;;;;;;;;;;0.80;56.10;;;;;;5075936;28;19908;-63
2022/01/12 01:12:48;;;;;;;;;;;0.80;56.10;;;;;;5076041;28;19931;-62
2022/01/12 01:15:18;;;;;;;;;;;0.70;56.10;;;;;;5093754;28;20372;-62
2022/01/12 01:25:39;;;;;;;;;;;0.70;56.00;;;;;;5093625;28;19923;-63
2022/01/12 01:28:05;;;;;;;;;;;0.60;56.00;;;;;;5075480;28;20273;-63
2022/01/12 01:30:34;;;;;;;;;;;0.60;56.00;;;;;;5093892;28;19970;-63
2022/01/12 01:33:05;;;;;;;;;;;0.60;56.00;;;;;;5093818;28;19958;-63
2022/01/12 01:35:31;;;;;;;;;;;0.60;56.10;;;;;;5093497;28;20414;-63
2022/01/12 01:38:01;;;;;;;;;;;0.60;56.10;;;;;;5093798;28;19915;-63
2022/01/12 01:40:28;;;;;;;;;;;0.60;56.10;;;;;;5075559;28;19912;-62
2022/01/12 01:43:09;;;;;;;;;;;0.60;56.10;;;;;;5093920;28;19977;-63
2022/01/12 01:53:49;;;;;;;;;;;0.40;56.10;;;;;;5093449;28;20042;-64
2022/01/12 01:56:16;;;;;;;;;;;0.50;56.20;;;;;;5093391;28;19912;-63
2022/01/12 01:58:41;;;;;;;;;;;0.40;56.10;;;;;;5075430;28;19977;-63
2022/01/12 02:01:07;;;;;;;;;;;0.40;56.20;;;;;;5093354;28;19934;-63
2022/01/12 02:03:33;;;;;;;;;;;0.40;56.20;;;;;;5075176;28;19912;-63
2022/01/12 02:05:59;;;;;;;;;;;0.40;56.20;;;;;;5108573;28;19930;-63
2022/01/12 02:08:25;;;;;;;;;;;0.40;56.30;;;;;;5109050;28;19915;-63
2022/01/12 02:10:55;;;;;;;;;;;0.40;56.40;;;;;;5075143;28;19909;-63
2022/01/12 02:13:21;;;;;;;;;;;0.40;56.50;;;;;;5093258;28;19912;-63
2022/01/12 02:15:47;;;;;;;;;;;0.30;56.50;;;;;;5075757;28;20305;-63
2022/01/12 02:18:22;;;;;;;;;;;0.30;56.60;;;;;;5092764;28;19920;-62
2022/01/12 02:40:08;;;;;;;;;;;0.30;57.00;;;;;;5096674;28;19958;-63
2022/01/12 02:42:35;;;;;;;;;;;0.30;57.00;;;;;;5078408;28;19975;-63
2022/01/12 02:50:40;;;;;;;;;;;0.30;56.90;;;;;;5096280;28;19938;-62
2022/01/12 02:50:47;;;;;;;;;;;0.30;57.00;;;;;;5096225;28;20359;-62
2022/01/12 02:55:58;;;;;;;;;;;0.30;57.10;;;;;;5096108;28;19915;-62
2022/01/12 02:58:27;;;;;;;;;;;0.30;57.20;;;;;;5096740;28;19916;-63
2022/01/12 03:03:22;;;;;;;;;;;0.20;57.30;;;;;;5096332;28;19919;-63
2022/01/12 03:05:57;;;;;;;;;;;0.30;57.30;;;;;;5078506;28;19961;-63
2022/01/12 03:08:25;;;;;;;;;;;0.30;57.30;;;;;;5078258;28;19939;-63
2022/01/12 03:10:50;;;;;;;;;;;0.20;57.20;;;;;;5078044;28;20384;-63
2022/01/12 03:13:16;;;;;;;;;;;0.30;57.20;;;;;;5096401;28;19995;-63
2022/01/12 03:15:47;;;;;;;;;;;0.30;57.30;;;;;;5111153;28;19957;-62
2022/01/12 03:18:13;;;;;;;;;;;0.20;57.30;;;;;;5096073;28;19920;-63
2022/01/12 03:20:39;;;;;;;;;;;0.20;57.20;;;;;;5096096;28;19950;-62
2022/01/12 03:23:05;;;;;;;;;;;0.20;57.30;;;;;;5111787;28;19908;-63
2022/01/12 03:25:30;;;;;;;;;;;0.20;57.40;;;;;;5095896;28;19982;-62
2022/01/12 03:28:00;;;;;;;;;;;0.20;57.40;;;;;;5095878;28;19912;-63
2022/01/12 03:30:26;;;;;;;;;;;0.20;57.40;;;;;;5095857;28;19912;-63
2022/01/12 03:33:06;;;;;;;;;;;0.20;57.50;;;;;;5077290;28;20268;-62
2022/01/12 03:36:12;;;;;;;;;;;0.20;57.70;;;;;;5095994;28;19913;-63
2022/01/12 03:38:32;;;;;;;;;;;0.20;57.70;;;;;;5094600;28;19908;-63
2022/01/12 03:41:01;;;;;;;;;;;0.30;57.80;;;;;;5077084;28;20367;-63
2022/01/12 03:43:26;;;;;;;;;;;0.20;57.70;;;;;;5095397;28;20015;-62
2022/01/12 03:45:52;;;;;;;;;;;0.20;57.80;;;;;;5095859;28;19966;-62
2022/01/12 03:48:18;;;;;;;;;;;0.20;57.80;;;;;;5095482;28;20332;-63
2022/01/12 03:50:43;;;;;;;;;;;0.20;57.70;;;;;;5095528;28;20271;-63
2022/01/12 03:53:09;;;;;;;;;;;0.20;57.60;;;;;;5094961;28;19908;-62
2022/01/12 03:55:35;;;;;;;;;;;0.20;57.60;;;;;;5077016;28;19956;-62
2022/01/12 03:58:00;;;;;;;;;;;0.20;57.60;;;;;;5095027;28;19908;-62
2022/01/12 04:00:26;;;;;;;;;;;0.10;57.60;;;;;;5095215;28;19919;-62
2022/01/12 04:02:52;;;;;;;;;;;0.10;57.50;;;;;;5095150;28;19912;-62
2022/01/12 04:10:33;;;;;;;;;;;0.10;57.60;;;;;;5094770;28;19915;-62
2022/01/12 04:13:00;;;;;;;;;;;0.10;57.50;;;;;;5094969;28;19909;-62
2022/01/12 04:15:26;;;;;;;;;;;0.00;57.60;;;;;;5094606;28;19912;-62
2022/01/12 04:17:51;;;;;;;;;;;0.00;57.60;;;;;;5094342;28;19920;-62
2022/01/12 04:20:17;;;;;;;;;;;0.00;57.60;;;;;;5094838;28;19913;-62
2022/01/12 04:25:27;;;;;;;;;;;0.00;57.60;;;;;;5094438;28;19942;-64
2022/01/12 04:27:53;;;;;;;;;;;0.00;57.60;;;;;;5076536;28;19912;-62
2022/01/12 04:30:19;;;;;;;;;;;-0.10;57.60;;;;;;5076716;28;19947;-63
2022/01/12 04:32:48;;;;;;;;;;;-0.10;57.60;;;;;;5094652;28;19908;-62
2022/01/12 04:35:15;;;;;;;;;;;-0.10;57.60;;;;;;5076215;28;19912;-62
2022/01/12 04:37:41;;;;;;;;;;;-0.10;57.70;;;;;;5094545;28;19914;-63
2022/01/12 04:40:07;;;;;;;;;;;-0.10;57.70;;;;;;5094404;28;19912;-62
2022/01/12 04:42:35;;;;;;;;;;;-0.10;57.70;;;;;;5094414;28;19908;-62
2022/01/12 04:45:15;;;;;;;;;;;-0.10;57.70;;;;;;5094206;28;20244;-62
2022/01/12 04:48:09;;;;;;;;;;;-0.10;57.70;;;;;;5076218;28;19955;-62
2022/01/12 04:50:28;;;;;;;;;;;-0.10;57.80;;;;;;5093018;28;19916;-62
2022/01/12 04:52:53;;;;;;;;;;;-0.10;57.90;;;;;;5093578;28;19908;-62
2022/01/12 04:55:19;;;;;;;;;;;-0.10;57.90;;;;;;5075981;28;20312;-63
2022/01/12 04:57:45;;;;;;;;;;;-0.10;57.90;;;;;;5094068;28;19953;-63
2022/01/12 05:00:16;;;;;;;;;;;-0.10;57.90;;;;;;5075974;28;19938;-63
2022/01/12 05:08:24;;;;;;;;;;;-0.10;57.80;;;;;;5092390;28;19997;-63
2022/01/12 05:13:35;;;;;;;;;;;-0.20;57.80;;;;;;5093894;28;19915;-63
2022/01/12 05:16:01;;;;;;;;;;;-0.20;57.80;;;;;;5094006;28;19947;-62
2022/01/12 05:18:27;;;;;;;;;;;-0.20;57.80;;;;;;5058861;28;19924;-63
2022/01/12 05:20:53;;;;;;;;;;;-0.20;57.90;;;;;;5055339;28;20327;-62
2022/01/12 05:23:18;;;;;;;;;;;-0.20;57.90;;;;;;5073427;28;19912;-62
2022/01/12 05:25:46;;;;;;;;;;;-0.20;57.80;;;;;;5073488;28;20027;-62
2022/01/12 05:28:16;;;;;;;;;;;-0.20;57.80;;;;;;5073185;28;19909;-63
2022/01/12 05:30:41;;;;;;;;;;;-0.20;57.80;;;;;;5073227;28;19909;-62
2022/01/12 05:33:07;;;;;;;;;;;-0.20;57.90;;;;;;5073400;28;20378;-63
2022/01/12 05:35:33;;;;;;;;;;;-0.20;57.80;;;;;;5073375;28;20003;-64
2022/01/12 05:38:04;;;;;;;;;;;-0.30;57.80;;;;;;5055293;28;19916;-63
2022/01/12 05:40:30;;;;;;;;;;;-0.30;57.70;;;;;;5055286;28;19909;-62
2022/01/12 05:42:59;;;;;;;;;;;-0.30;57.70;;;;;;5073471;28;19908;-63
2022/01/12 05:45:25;;;;;;;;;;;-0.30;57.70;;;;;;5055056;28;19924;-63
2022/01/12 05:50:18;;;;;;;;;;;-0.30;57.80;;;;;;5072808;28;20335;-63
2022/01/12 05:52:43;;;;;;;;;;;-0.40;57.70;;;;;;5073124;28;19938;-62
2022/01/12 05:55:09;;;;;;;;;;;-0.40;57.70;;;;;;5054962;28;20015;-63
2022/01/12 05:57:35;;;;;;;;;;;-0.40;57.80;;;;;;5073307;28;20327;-62
2022/01/12 06:00:03;;;;;;;;;;;-0.40;57.70;;;;;;5072872;28;19908;-62
2022/01/12 06:02:29;;;;;;;;;;;-0.40;57.80;;;;;;5073581;28;19975;-62
2022/01/12 06:04:55;;;;;;;;;;;-0.40;57.80;;;;;;5076630;28;20368;-63
2022/01/12 06:07:21;;;;;;;;;;;-0.40;57.80;;;;;;5059015;28;19964;-63
2022/01/12 06:09:46;;;;;;;;;;;-0.40;57.80;;;;;;5076720;28;19916;-62
2022/01/12 06:12:12;;;;;;;;;;;-0.40;57.90;;;;;;5076710;28;19912;-62
2022/01/12 06:14:38;;;;;;;;;;;-0.40;57.90;;;;;;5091896;28;19915;-62
2022/01/12 06:17:03;;;;;;;;;;;-0.40;58.10;;;;;;5076588;28;19966;-62
2022/01/12 06:19:29;;;;;;;;;;;-0.40;58.30;;;;;;5076745;28;19912;-63
2022/01/12 06:21:55;;;;;;;;;;;-0.30;58.40;;;;;;5109016;28;19908;-63
2022/01/12 06:24:20;;;;;;;;;;;-0.30;58.40;;;;;;5076729;28;19912;-64
2022/01/12 06:26:47;;;;;;;;;;;-0.30;58.30;;;;;;5082151;28;19912;-66
2022/01/12 06:31:43;;;;;;;;;;;-0.30;58.40;;;;;;5097408;28;19969;-66
2022/01/12 06:34:09;;;;;;;;;;;-0.20;58.40;;;;;;5097710;28;19919;-73
2022/01/12 06:36:35;;;;;;;;;;;-0.20;58.40;;;;;;5078845;28;20360;-80
2022/01/12 06:39:00;;;;;;;;;;;-0.20;58.30;;;;;;5079585;28;19957;-76
2022/01/12 06:41:26;;;;;;;;;;;-0.20;58.30;;;;;;5078528;28;20264;-67
2022/01/12 06:43:52;;;;;;;;;;;-0.20;58.30;;;;;;5096237;28;19912;-65
2022/01/12 06:46:24;;;;;;;;;;;-0.10;58.50;;;;;;5085635;28;19912;-67
2022/01/12 06:48:49;;;;;;;;;;;-0.10;58.50;;;;;;5096546;28;19908;-66
2022/01/12 06:51:15;;;;;;;;;;;0.00;58.80;;;;;;5095758;28;20251;-66
2022/01/12 06:53:41;;;;;;;;;;;0.10;58.90;;;;;;5090659;28;19904;-67
2022/01/12 06:56:08;;;;;;;;;;;0.20;58.90;;;;;;5096649;28;19912;-66
2022/01/12 06:58:33;;;;;;;;;;;0.20;58.90;;;;;;5077960;28;20270;-64
2022/01/12 07:00:59;;;;;;;;;;;0.30;58.80;;;;;;5096164;28;19904;-64
2022/01/12 07:03:25;;;;;;;;;;;0.40;58.80;;;;;;5096757;28;19912;-61
2022/01/12 07:05:50;;;;;;;;;;;0.50;58.80;;;;;;5096436;28;20331;-60
2022/01/12 07:08:16;;;;;;;;;;;0.60;58.80;;;;;;5095830;28;20334;-66
2022/01/12 07:10:42;;;;;;;;;;;0.60;58.80;;;;;;5096283;28;19962;-63
2022/01/12 07:13:11;;;;;;;;;;;0.70;58.70;;;;;;5096155;28;19949;-64
2022/01/12 07:15:37;;;;;;;;;;;0.80;58.70;;;;;;5077361;28;19951;-62
2022/01/12 07:18:03;;;;;;;;;;;0.90;58.60;;;;;;5095597;28;19931;-63
2022/01/12 07:20:29;;;;;;;;;;;1.00;58.60;;;;;;5091791;28;19916;-62
2022/01/12 07:22:54;;;;;;;;;;;1.00;58.40;;;;;;5091119;28;20344;-62
2022/01/12 07:25:20;;;;;;;;;;;1.10;58.40;;;;;;5102022;28;19907;-64
2022/01/12 07:27:46;;;;;;;;;;;1.10;58.30;;;;;;5110912;28;20348;-63
2022/01/12 07:30:12;;;;;;;;;;;1.20;58.30;;;;;;5077968;28;19908;-63
2022/01/12 07:32:37;;;;;;;;;;;1.30;58.20;;;;;;5096103;28;20302;-64
2022/01/12 07:35:04;;;;;;;;;;;1.30;58.10;;;;;;5095697;28;20272;-66
2022/01/12 07:37:30;;;;;;;;;;;1.40;58.00;;;;;;5076806;28;19957;-65
2022/01/12 07:39:55;;;;;;;;;;;1.50;58.00;;;;;;5077639;28;19934;-65
2022/01/12 07:42:21;;;;;;;;;;;1.60;58.00;;;;;;5095808;28;19911;-68
2022/01/12 07:44:47;;;;;;;;;;;1.70;57.90;;;;;;5095064;28;19969;-68
2022/01/12 07:47:12;;;;;;;;;;;1.80;57.90;;;;;;5095204;28;19915;-68
2022/01/12 07:49:38;;;;;;;;;;;1.80;57.70;;;;;;5077066;28;19990;-67
2022/01/12 07:52:05;;;;;;;;;;;1.80;57.50;;;;;;5095420;28;19915;-66
2022/01/12 07:54:30;;;;;;;;;;;1.90;57.40;;;;;;5078117;28;19904;-68
2022/01/12 07:56:56;;;;;;;;;;;2.00;57.40;;;;;;5094005;28;20379;-67
2022/01/12 07:59:22;;;;;;;;;;;2.10;57.20;;;;;;5077275;28;19908;-66
2022/01/12 08:01:47;;;;;;;;;;;2.20;57.10;;;;;;5077131;28;19904;-66
2022/01/12 08:04:13;;;;;;;;;;;2.20;57.00;;;;;;5067760;28;19969;-67
2022/01/12 08:06:38;;;;;;;;;;;2.30;57.50;;;;;;5106911;28;19912;-66
2022/01/12 08:09:07;;;;;;;;;;;2.30;56.70;;;;;;5094364;28;19931;-67
2022/01/12 08:11:33;;;;;;;;;;;2.40;56.60;;;;;;5077002;28;20339;-64
2022/01/12 08:13:58;;;;;;;;;;;2.50;56.60;;;;;;5077366;28;20373;-64
2022/01/12 08:16:24;;;;;;;;;;;2.50;56.60;;;;;;5092263;28;19904;-65
2022/01/12 08:18:50;;;;;;;;;;;2.50;56.50;;;;;;5089101;28;19920;-66
2022/01/12 08:21:15;;;;;;;;;;;2.60;56.30;;;;;;5095059;28;19908;-68
2022/01/12 08:23:41;;;;;;;;;;;2.60;56.20;;;;;;5095170;28;19908;-68
2022/01/12 08:26:07;;;;;;;;;;;2.70;56.10;;;;;;5094155;28;19995;-67
2022/01/12 08:28:33;;;;;;;;;;;2.70;55.90;;;;;;5094864;28;19916;-68
2022/01/12 08:30:59;;;;;;;;;;;2.70;55.90;;;;;;5095019;28;20013;-60
2022/01/12 08:33:26;;;;;;;;;;;2.80;55.80;;;;;;5095180;28;19947;-71
2022/01/12 08:35:52;;;;;;;;;;;2.90;55.90;;;;;;5095329;28;20247;-67
2022/01/12 08:38:17;;;;;;;;;;;2.90;55.90;;;;;;5095309;28;20303;-67
2022/01/12 08:40:43;;;;;;;;;;;3.00;55.90;;;;;;5076630;28;19958;-68
2022/01/12 08:43:09;;;;;;;;;;;3.10;55.80;;;;;;5094905;28;20008;-68
2022/01/12 08:45:34;;;;;;;;;;;3.10;55.80;;;;;;5095213;28;19915;-62
2022/01/12 08:48:00;;;;;;;;;;;3.20;55.80;;;;;;5094143;28;20349;-70
2022/01/12 08:50:26;;;;;;;;;;;3.30;55.70;;;;;;5076464;28;19914;-71
2022/01/12 08:52:51;;;;;;;;;;;3.30;55.40;;;;;;5095014;28;19915;-64
2022/01/12 08:55:19;;;;;;;;;;;3.40;55.30;;;;;;5094360;28;19954;-64
2022/01/12 08:57:44;;;;;;;;;;;3.40;55.10;;;;;;5094059;28;20351;-64
2022/01/12 09:00:10;;;;;;;;;;;3.40;55.00;;;;;;5094041;28;19936;-64
2022/01/12 09:02:36;;;;;;;;;;;3.40;54.90;;;;;;5094513;28;19908;-64
2022/01/12 09:05:03;;;;;;;;;;;3.50;55.00;;;;;;5109516;28;19914;-69
2022/01/12 09:07:29;;;;;;;;;;;3.50;55.00;;;;;;5093893;28;19919;-65
2022/01/12 09:09:54;;;;;;;;;;;3.60;54.90;;;;;;5076039;28;19905;-68
2022/01/12 09:12:20;;;;;;;;;;;3.60;54.80;;;;;;5094273;28;20453;-66
2022/01/12 09:14:45;;;;;;;;;;;3.60;54.70;;;;;;5076177;28;19915;-66
2022/01/12 09:17:13;;;;;;;;;;;3.70;54.70;;;;;;5085202;28;19920;-63
2022/01/12 09:19:38;;;;;;;;;;;3.70;54.70;;;;;;5094640;28;19915;-62
2022/01/12 09:22:04;;;;;;;;;;;3.70;54.40;;;;;;5089970;28;19908;-62
2022/01/12 09:24:30;;;;;;;;;;;3.70;54.30;;;;;;5071846;28;19912;-63
2022/01/12 09:26:55;;;;;;;;;;;3.70;54.30;;;;;;5091832;28;19912;-71
2022/01/12 09:29:21;;;;;;;;;;;3.70;54.40;;;;;;5093509;28;19908;-67
2022/01/12 09:31:46;;;;;;;;;;;3.80;54.60;;;;;;5093544;28;19955;-67
2022/01/12 09:34:12;;;;;;;;;;;3.90;54.80;;;;;;5093674;28;20002;-67
2022/01/12 09:36:38;;;;;;;;;;;4.00;55.00;;;;;;5074460;28;20302;-68
2022/01/12 09:39:04;;;;;;;;;;;4.10;54.90;;;;;;5092834;28;19962;-68
2022/01/12 09:41:30;;;;;;;;;;;4.20;54.60;;;;;;5093528;28;20002;-68
2022/01/12 09:43:57;;;;;;;;;;;4.20;54.30;;;;;;5093639;28;19994;-60
2022/01/12 09:46:23;;;;;;;;;;;4.20;54.20;;;;;;5092391;28;19919;-64
2022/01/12 09:48:49;;;;;;;;;;;4.20;54.10;;;;;;5093820;28;20263;-66
2022/01/12 09:51:15;;;;;;;;;;;4.20;54.10;;;;;;5093049;28;19908;-64
2022/01/12 09:53:41;;;;;;;;;;;4.20;54.10;;;;;;5093742;28;19904;-65
2022/01/12 09:56:11;;;;;;;;;;;4.20;54.00;;;;;;5092615;28;19908;-64
2022/01/12 09:58:38;;;;;;;;;;;4.10;54.00;;;;;;5075406;28;19951;-64
2022/01/12 10:01:04;;;;;;;;;;;4.10;54.00;;;;;;5093830;28;20372;-65
2022/01/12 10:03:30;;;;;;;;;;;4.10;54.20;;;;;;5093930;28;19952;-69
2022/01/12 10:05:55;;;;;;;;;;;4.10;54.20;;;;;;5094031;28;19908;-72
2022/01/12 10:08:21;;;;;;;;;;;4.10;54.30;;;;;;5093645;28;19904;-71
2022/01/12 10:11:06;;;;;;;;;;;4.10;54.40;;;;;;5076276;28;19970;-70
2022/01/12 10:13:32;;;;;;;;;;;4.20;54.50;;;;;;5075324;28;20024;-69
2022/01/12 10:16:08;;;;;;;;;;;4.30;54.40;;;;;;5093841;28;19904;-67
2022/01/12 10:18:43;;;;;;;;;;;4.30;54.40;;;;;;5058183;28;20007;-70
2022/01/12 10:21:08;;;;;;;;;;;4.40;54.50;;;;;;5073462;28;20287;-66
2022/01/12 10:23:38;;;;;;;;;;;4.50;54.60;;;;;;5054554;28;19919;-70
2022/01/12 10:26:03;;;;;;;;;;;4.60;54.70;;;;;;5072184;28;19912;-71
2022/01/12 10:28:34;;;;;;;;;;;4.70;54.50;;;;;;5073788;28;19928;-72
2022/01/12 10:31:01;;;;;;;;;;;4.70;54.30;;;;;;5073447;28;19952;-71
2022/01/12 10:33:30;;;;;;;;;;;4.80;54.20;;;;;;5073455;28;20391;-72
2022/01/12 10:35:58;;;;;;;;;;;4.90;54.10;;;;;;5055359;28;19951;-72
2022/01/12 10:38:28;;;;;;;;;;;4.90;53.90;;;;;;5073701;28;19908;-72
2022/01/12 10:40:53;;;;;;;;;;;5.00;53.90;;;;;;5055293;28;19905;-72
2022/01/12 10:43:45;;;;;;;;;;;5.00;53.90;;;;;;5054106;28;19987;-72
2022/01/12 10:46:17;;;;;;;;;;;5.10;54.00;;;;;;5073085;28;20007;-69
2022/01/12 10:48:47;;;;;;;;;;;5.20;54.00;;;;;;5073873;28;19904;-73
2022/01/12 10:51:14;;;;;;;;;;;5.30;54.10;;;;;;5058582;28;19940;-67
2022/01/12 10:53:40;;;;;;;;;;;5.50;54.10;;;;;;5072973;28;19908;-75
2022/01/12 10:56:10;;;;;;;;;;;5.60;53.80;;;;;;5076533;28;19973;-76
2022/01/12 10:58:36;;;;;;;;;;;5.70;53.80;;;;;;5076208;28;20304;-73
2022/01/12 11:01:02;;;;;;;;;;;5.70;53.60;;;;;;5075397;28;19904;-77
2022/01/12 11:03:29;;;;;;;;;;;5.90;53.70;;;;;;5076210;28;19927;-80
2022/01/12 11:05:55;;;;;;;;;;;6.00;53.50;;;;;;5076683;28;19974;-67
2022/01/12 11:08:23;;;;;;;;;;;6.10;53.40;;;;;;5075906;28;19912;-82
2022/01/12 11:10:49;;;;;;;;;;;6.10;53.10;;;;;;5056711;28;20351;-74
2022/01/12 11:13:15;;;;;;;;;;;6.20;52.90;;;;;;5058307;28;20005;-78
2022/01/12 11:15:40;;;;;;;;;;;6.30;52.60;;;;;;5058211;28;19911;-84
2022/01/12 11:18:07;;;;;;;;;;;6.30;52.30;;;;;;5057608;28;20386;-78
2022/01/12 11:20:33;;;;;;;;;;;6.30;52.20;;;;;;5056856;28;19915;-76
2022/01/12 11:23:12;;;;;;;;;;;6.30;52.10;;;;;;5075591;28;19904;-70
2022/01/12 11:25:42;;;;;;;;;;;6.30;52.00;;;;;;5057774;28;19916;-77
2022/01/12 11:28:16;;;;;;;;;;;6.30;51.80;;;;;;5076419;28;19911;-85
2022/01/12 11:30:48;;;;;;;;;;;6.20;51.60;;;;;;5057244;28;19904;-75
2022/01/12 11:33:14;;;;;;;;;;;6.20;51.60;;;;;;5058329;28;19911;-85
2022/01/12 11:35:47;;;;;;;;;;;6.10;51.60;;;;;;5075873;28;19905;-83
2022/01/12 11:38:34;;;;;;;;;;;6.10;51.60;;;;;;5057735;28;19905;-74
2022/01/12 11:41:13;;;;;;;;;;;6.00;51.70;;;;;;5056656;28;19904;-86
2022/01/12 11:43:41;;;;;;;;;;;6.10;51.90;;;;;;5055526;28;19909;-77
2022/01/12 11:46:12;;;;;;;;;;;6.10;52.00;;;;;;5055636;28;19916;-77
2022/01/12 11:48:55;;;;;;;;;;;6.20;52.10;;;;;;5049185;28;19908;-79
2022/01/12 11:51:33;;;;;;;;;;;6.30;52.10;;;;;;5058399;28;19911;-75
2022/01/12 11:54:01;;;;;;;;;;;6.40;52.10;;;;;;5075868;28;19998;-77
2022/01/12 11:56:26;;;;;;;;;;;6.40;51.80;;;;;;5075079;28;20279;-78
2022/01/12 11:58:57;;;;;;;;;;;6.50;51.50;;;;;;5058162;28;19911;-81
2022/01/12 12:01:23;;;;;;;;;;;6.50;51.40;;;;;;5057058;28;19905;-74
2022/01/12 12:03:56;;;;;;;;;;;6.50;51.10;;;;;;5074597;28;20035;-85
2022/01/12 12:06:22;;;;;;;;;;;6.50;51.00;;;;;;5057041;28;20325;-73
2022/01/12 12:09:04;;;;;;;;;;;6.50;50.90;;;;;;5074756;28;19905;-71
2022/01/12 12:11:30;;;;;;;;;;;6.50;50.90;;;;;;5055885;28;19994;-74
2022/01/12 12:14:03;;;;;;;;;;;6.40;50.60;;;;;;5057000;28;19980;-74
2022/01/12 12:16:29;;;;;;;;;;;6.40;50.60;;;;;;5057009;28;20354;-75
2022/01/12 12:18:56;;;;;;;;;;;6.30;50.60;;;;;;5036636;28;19960;-71
2022/01/12 12:21:21;;;;;;;;;;;6.30;50.60;;;;;;5035981;28;19905;-73
2022/01/12 12:23:47;;;;;;;;;;;6.20;50.50;;;;;;5054353;28;19962;-69
2022/01/12 12:26:15;;;;;;;;;;;6.10;50.60;;;;;;5054952;28;19955;-73
2022/01/12 12:28:44;;;;;;;;;;;6.10;50.50;;;;;;5054240;28;19909;-70
2022/01/12 12:31:10;;;;;;;;;;;6.00;50.50;;;;;;5053658;28;20255;-74
2022/01/12 12:33:36;;;;;;;;;;;6.00;50.50;;;;;;5036549;28;20003;-71
2022/01/12 12:36:03;;;;;;;;;;;5.90;50.50;;;;;;5036399;28;19971;-81
2022/01/12 12:38:29;;;;;;;;;;;5.90;50.40;;;;;;5036349;28;19912;-71
2022/01/12 12:40:55;;;;;;;;;;;5.80;50.40;;;;;;5035247;28;19905;-70
2022/01/12 12:43:33;;;;;;;;;;;5.80;50.40;;;;;;5036473;28;19904;-72
2022/01/12 12:46:00;;;;;;;;;;;5.70;50.40;;;;;;5036029;28;19913;-73
2022/01/12 12:48:28;;;;;;;;;;;5.70;50.50;;;;;;5060427;28;20325;-74
2022/01/12 12:51:02;;;;;;;;;;;5.70;50.70;;;;;;5034679;28;19952;-73
2022/01/12 12:53:33;;;;;;;;;;;5.70;50.80;;;;;;5053810;28;19909;-73
2022/01/12 12:55:59;;;;;;;;;;;5.70;50.90;;;;;;5036143;28;20255;-71
2022/01/12 12:58:25;;;;;;;;;;;5.70;50.90;;;;;;5053738;28;19923;-72
2022/01/12 13:00:51;;;;;;;;;;;5.70;51.00;;;;;;5034783;28;19904;-70
2022/01/12 13:03:17;;;;;;;;;;;5.80;51.70;;;;;;5053369;28;19916;-71
2022/01/12 13:05:42;;;;;;;;;;;5.80;51.10;;;;;;5035480;28;20365;-75
2022/01/12 13:08:09;;;;;;;;;;;5.80;51.00;;;;;;5053302;28;19952;-74
2022/01/12 13:10:35;;;;;;;;;;;5.80;51.00;;;;;;5052056;28;19916;-75
2022/01/12 13:13:02;;;;;;;;;;;5.90;51.00;;;;;;5052890;28;19963;-74
2022/01/12 13:15:30;;;;;;;;;;;5.90;51.00;;;;;;5053639;28;19913;-74
2022/01/12 13:17:57;;;;;;;;;;;5.90;50.90;;;;;;5064990;28;19926;-74
2022/01/12 13:22:50;;;;;;;;;;;6.00;50.80;;;;;;5074611;28;19953;-70
2022/01/12 13:25:17;;;;;;;;;;;5.90;50.70;;;;;;5055560;28;20008;-70
2022/01/12 13:27:50;;;;;;;;;;;5.90;50.50;;;;;;5055235;28;19909;-72
2022/01/12 13:30:28;;;;;;;;;;;5.90;50.40;;;;;;5073692;28;20275;-70
2022/01/12 13:33:00;;;;;;;;;;;5.90;50.40;;;;;;5073124;28;19905;-69
2022/01/12 13:35:32;;;;;;;;;;;5.90;50.50;;;;;;5073289;28;19971;-67
2022/01/12 13:38:07;;;;;;;;;;;5.90;50.60;;;;;;5055522;28;19904;-68
2022/01/12 13:40:44;;;;;;;;;;;5.80;50.50;;;;;;5073721;28;19905;-69
2022/01/12 13:43:19;;;;;;;;;;;5.80;50.60;;;;;;5055633;28;20347;-68
2022/01/12 13:46:00;;;;;;;;;;;5.80;50.60;;;;;;5055560;28;19913;-68
2022/01/12 13:48:40;;;;;;;;;;;5.80;50.60;;;;;;5055304;28;20410;-69
2022/01/12 13:51:17;;;;;;;;;;;5.80;50.60;;;;;;5073513;28;19948;-69
2022/01/12 13:53:56;;;;;;;;;;;5.70;50.60;;;;;;5073251;28;19912;-69
2022/01/12 13:56:38;;;;;;;;;;;5.70;50.60;;;;;;5054582;28;19905;-68
2022/01/12 13:59:17;;;;;;;;;;;5.70;50.70;;;;;;5073442;28;20237;-69
2022/01/12 14:01:57;;;;;;;;;;;5.70;50.60;;;;;;5073402;28;19987;-69
2022/01/12 14:04:48;;;;;;;;;;;5.70;50.70;;;;;;5072933;28;19909;-69
2022/01/12 14:07:23;;;;;;;;;;;5.70;50.70;;;;;;5073147;28;19908;-69
2022/01/12 14:10:06;;;;;;;;;;;5.60;50.60;;;;;;5055325;28;19905;-68
2022/01/12 14:12:38;;;;;;;;;;;5.60;50.60;;;;;;5054192;28;19991;-69
2022/01/12 14:15:18;;;;;;;;;;;5.60;51.20;;;;;;5054950;28;19905;-70
2022/01/12 14:17:52;;;;;;;;;;;5.50;50.60;;;;;;5053712;28;20036;-68
2022/01/12 14:20:38;;;;;;;;;;;5.50;50.60;;;;;;5073220;28;19908;-69
2022/01/12 14:23:09;;;;;;;;;;;5.50;50.60;;;;;;5072900;28;19905;-72
2022/01/12 14:25:42;;;;;;;;;;;5.40;50.60;;;;;;5076894;28;19908;-68
2022/01/12 14:28:34;;;;;;;;;;;5.40;50.70;;;;;;5077101;28;20311;-67
2022/01/12 14:31:13;;;;;;;;;;;5.30;50.70;;;;;;5076887;28;19912;-67
2022/01/12 14:33:53;;;;;;;;;;;5.30;50.80;;;;;;5076455;28;19915;-70
2022/01/12 14:36:32;;;;;;;;;;;5.20;50.80;;;;;;5076405;28;19991;-68
2022/01/12 14:39:12;;;;;;;;;;;5.20;50.80;;;;;;5076716;28;19904;-68
2022/01/12 14:41:51;;;;;;;;;;;5.10;50.80;;;;;;5076714;28;19912;-68
2022/01/12 14:44:33;;;;;;;;;;;5.10;50.90;;;;;;5076401;28;20010;-68
2022/01/12 14:47:12;;;;;;;;;;;5.10;51.00;;;;;;5076467;28;19908;-67
2022/01/12 14:49:52;;;;;;;;;;;5.00;51.00;;;;;;5092709;28;19990;-67
2022/01/12 14:52:31;;;;;;;;;;;4.90;51.00;;;;;;5076018;28;19904;-69
2022/01/12 14:55:11;;;;;;;;;;;4.90;51.10;;;;;;5058184;28;19909;-68
2022/01/12 14:57:50;;;;;;;;;;;4.90;51.20;;;;;;5075952;28;19908;-68
2022/01/12 15:00:30;;;;;;;;;;;4.80;51.40;;;;;;5075978;28;19908;-71
2022/01/12 15:03:00;;;;;;;;;;;4.80;51.50;;;;;;5075979;28;19908;-68
2022/01/12 15:05:40;;;;;;;;;;;4.70;51.50;;;;;;5058048;28;20002;-68
2022/01/12 15:08:19;;;;;;;;;;;4.70;51.50;;;;;;5057352;28;19909;-69
2022/01/12 15:11:11;;;;;;;;;;;4.70;51.70;;;;;;5057074;28;19912;-68
2022/01/12 15:13:58;;;;;;;;;;;4.60;51.70;;;;;;5091593;28;19908;-68
2022/01/12 15:16:37;;;;;;;;;;;4.60;51.70;;;;;;5057822;28;19943;-68
2022/01/12 15:19:06;;;;;;;;;;;4.50;51.60;;;;;;5075847;28;19935;-69
2022/01/12 15:21:45;;;;;;;;;;;4.50;52.20;;;;;;5091433;28;19904;-68
2022/01/12 15:24:16;;;;;;;;;;;4.50;51.70;;;;;;5075789;28;20359;-68
2022/01/12 15:26:56;;;;;;;;;;;4.40;51.70;;;;;;5091367;28;19916;-69
2022/01/12 15:29:33;;;;;;;;;;;4.40;51.70;;;;;;5075474;28;19904;-68
2022/01/12 15:32:14;;;;;;;;;;;4.30;51.80;;;;;;5056669;28;19971;-68
2022/01/12 15:34:53;;;;;;;;;;;4.20;51.80;;;;;;5075360;28;19905;-67
2022/01/12 15:37:33;;;;;;;;;;;4.20;51.90;;;;;;5057408;28;20241;-68
2022/01/12 15:40:12;;;;;;;;;;;4.10;51.90;;;;;;5075415;28;19912;-68
2022/01/12 15:42:52;;;;;;;;;;;4.10;52.00;;;;;;5075294;28;19911;-67
2022/01/12 15:45:31;;;;;;;;;;;4.00;52.10;;;;;;5056688;28;19931;-69
2022/01/12 15:48:23;;;;;;;;;;;4.00;52.20;;;;;;5056918;28;20264;-68
2022/01/12 15:51:02;;;;;;;;;;;3.90;52.20;;;;;;5074881;28;19998;-68
2022/01/12 15:53:38;;;;;;;;;;;3.90;52.20;;;;;;5074973;28;19905;-68